ARE4218 SKBO-SKCC
Flight info
| Callsign | ARE4218 |
|---|---|
| Flight time | 0h 45m |
| Altitude | 29000 |
| Route | OSUSU4R OSUSU DCT BUV DCT ESNUT ESNUT2K |
| Aircraft | A320/M-SDE3FGHIRWY/LB1 |
Departure
| Time | 2026-04-22 01:52 |
|---|---|
| Airport | El Dorado International Airport (SKBO) |
Arrival
| Time | 2026-04-22 02:38 |
|---|---|
| Airport | Camilo Daza International Airport (SKCC) |
| Time | Latitude | Longitude | Altitude | Speed | Heading |
|---|---|---|---|---|---|
| 2026-04-22 01:18 | 4.70070 | -74.14426 | 8371 ft | 0 kts | 59° |
| 2026-04-22 01:40 | 4.70060 | -74.14443 | 8372 ft | 4 kts | 62° |
| 2026-04-22 01:41 | 4.70047 | -74.14467 | 8372 ft | 3 kts | 59° |
| 2026-04-22 01:41 | 4.70036 | -74.14483 | 8373 ft | 4 kts | 19° |
| 2026-04-22 01:41 | 4.70019 | -74.14478 | 8373 ft | 4 kts | 308° |
| 2026-04-22 01:41 | 4.70004 | -74.14457 | 8372 ft | 4 kts | 306° |
| 2026-04-22 01:42 | 4.69990 | -74.14438 | 8373 ft | 1 kts | 306° |
| 2026-04-22 01:45 | 4.69995 | -74.14446 | 8373 ft | 3 kts | 306° |
| 2026-04-22 01:45 | 4.70010 | -74.14465 | 8371 ft | 6 kts | 306° |
| 2026-04-22 01:45 | 4.70043 | -74.14511 | 8373 ft | 10 kts | 307° |
| 2026-04-22 01:45 | 4.70096 | -74.14555 | 8373 ft | 10 kts | 2° |
| 2026-04-22 01:46 | 4.70160 | -74.14513 | 8373 ft | 12 kts | 39° |
| 2026-04-22 01:46 | 4.70226 | -74.14463 | 8373 ft | 12 kts | 37° |
| 2026-04-22 01:46 | 4.70288 | -74.14415 | 8372 ft | 11 kts | 38° |
| 2026-04-22 01:46 | 4.70348 | -74.14369 | 8373 ft | 11 kts | 36° |
| 2026-04-22 01:47 | 4.70416 | -74.14335 | 8373 ft | 10 kts | 354° |
| 2026-04-22 01:47 | 4.70468 | -74.14384 | 8372 ft | 11 kts | 306° |
| 2026-04-22 01:47 | 4.70519 | -74.14452 | 8374 ft | 14 kts | 307° |
| 2026-04-22 01:47 | 4.70585 | -74.14538 | 8372 ft | 17 kts | 307° |
| 2026-04-22 01:48 | 4.70663 | -74.14642 | 8373 ft | 19 kts | 307° |
| 2026-04-22 01:48 | 4.70743 | -74.14747 | 8374 ft | 19 kts | 307° |
| 2026-04-22 01:48 | 4.70822 | -74.14852 | 8373 ft | 19 kts | 307° |
| 2026-04-22 01:48 | 4.70903 | -74.14959 | 8373 ft | 20 kts | 308° |
| 2026-04-22 01:49 | 4.70986 | -74.15069 | 8373 ft | 20 kts | 307° |
| 2026-04-22 01:49 | 4.71060 | -74.15166 | 8372 ft | 13 kts | 308° |
| 2026-04-22 01:49 | 4.71126 | -74.15219 | 8372 ft | 12 kts | 351° |
| 2026-04-22 01:49 | 4.71193 | -74.15227 | 8373 ft | 8 kts | 354° |
| 2026-04-22 01:50 | 4.71245 | -74.15232 | 8373 ft | 8 kts | 354° |
| 2026-04-22 01:50 | 4.71298 | -74.15228 | 8372 ft | 7 kts | 29° |
| 2026-04-22 01:50 | 4.71321 | -74.15192 | 8371 ft | 5 kts | 84° |
| 2026-04-22 01:50 | 4.71312 | -74.15174 | 8371 ft | 0 kts | 127° |
| 2026-04-22 01:51 | 4.71287 | -74.15142 | 8371 ft | 30 kts | 127° |
| 2026-04-22 01:52 | 4.71009 | -74.14773 | 8370 ft | 99 kts | 127° |
| 2026-04-22 01:52 | 4.70475 | -74.14069 | 8370 ft | 153 kts | 127° |
| 2026-04-22 01:52 | 4.69733 | -74.13092 | 8386 ft | 196 kts | 127° |
| 2026-04-22 01:52 | 4.68926 | -74.12019 | 9086 ft | 191 kts | 123° |
| 2026-04-22 01:53 | 4.68564 | -74.10755 | 9669 ft | 195 kts | 82° |
| 2026-04-22 01:53 | 4.69125 | -74.09517 | 9965 ft | 204 kts | 40° |
| 2026-04-22 01:53 | 4.70403 | -74.08859 | 10278 ft | 215 kts | 15° |
| 2026-04-22 01:53 | 4.71922 | -74.08545 | 10521 ft | 230 kts | 11° |
| 2026-04-22 01:54 | 4.73506 | -74.08088 | 10837 ft | 244 kts | 17° |
| 2026-04-22 01:54 | 4.75139 | -74.07576 | 11424 ft | 247 kts | 17° |
| 2026-04-22 01:54 | 4.76792 | -74.07059 | 12054 ft | 249 kts | 17° |
| 2026-04-22 01:54 | 4.78441 | -74.06534 | 12758 ft | 249 kts | 17° |
| 2026-04-22 01:55 | 4.80136 | -74.05984 | 13071 ft | 267 kts | 18° |
| 2026-04-22 01:55 | 4.81985 | -74.05374 | 13242 ft | 291 kts | 18° |
| 2026-04-22 01:55 | 4.83986 | -74.04708 | 13364 ft | 314 kts | 18° |
| 2026-04-22 01:55 | 4.86128 | -74.03991 | 13506 ft | 335 kts | 18° |
| 2026-04-22 01:56 | 4.88383 | -74.03226 | 13844 ft | 347 kts | 18° |
| 2026-04-22 01:56 | 4.90661 | -74.02451 | 14364 ft | 352 kts | 18° |
| 2026-04-22 01:56 | 4.92998 | -74.01657 | 14886 ft | 356 kts | 18° |
| 2026-04-22 01:56 | 4.95354 | -74.00858 | 15414 ft | 359 kts | 18° |
| 2026-04-22 01:57 | 4.97735 | -74.00051 | 15927 ft | 363 kts | 18° |
| 2026-04-22 01:57 | 5.00139 | -73.99236 | 16442 ft | 366 kts | 18° |
| 2026-04-22 01:57 | 5.02572 | -73.98430 | 16866 ft | 370 kts | 17° |
| 2026-04-22 01:57 | 5.05052 | -73.97721 | 16971 ft | 371 kts | 14° |
| 2026-04-22 01:58 | 5.07560 | -73.97094 | 16990 ft | 371 kts | 13° |
| 2026-04-22 01:58 | 5.10071 | -73.96509 | 16990 ft | 371 kts | 12° |
| 2026-04-22 01:58 | 5.12587 | -73.95931 | 16972 ft | 371 kts | 12° |
| 2026-04-22 01:58 | 5.15104 | -73.95342 | 16970 ft | 370 kts | 13° |
| 2026-04-22 01:59 | 5.17609 | -73.94739 | 16971 ft | 370 kts | 13° |
| 2026-04-22 01:59 | 5.20111 | -73.94124 | 16971 ft | 370 kts | 13° |
| 2026-04-22 01:59 | 5.22578 | -73.93512 | 16971 ft | 370 kts | 13° |
| 2026-04-22 01:59 | 5.25077 | -73.92886 | 16985 ft | 370 kts | 14° |
| 2026-04-22 02:00 | 5.27586 | -73.92256 | 17171 ft | 373 kts | 13° |
| 2026-04-22 02:00 | 5.30110 | -73.91623 | 17746 ft | 375 kts | 14° |
| 2026-04-22 02:00 | 5.32644 | -73.90986 | 18274 ft | 378 kts | 14° |
| 2026-04-22 02:00 | 5.35212 | -73.90343 | 18766 ft | 381 kts | 13° |
| 2026-04-22 02:01 | 5.37798 | -73.89696 | 19216 ft | 384 kts | 13° |
| 2026-04-22 02:01 | 5.40402 | -73.89047 | 19657 ft | 387 kts | 13° |
| 2026-04-22 02:01 | 5.43026 | -73.88395 | 20101 ft | 390 kts | 13° |
| 2026-04-22 02:01 | 5.45670 | -73.87739 | 20571 ft | 393 kts | 13° |
| 2026-04-22 02:02 | 5.48341 | -73.87077 | 21041 ft | 396 kts | 13° |
| 2026-04-22 02:02 | 5.51024 | -73.86411 | 21517 ft | 398 kts | 14° |
| 2026-04-22 02:02 | 5.53662 | -73.85541 | 21969 ft | 402 kts | 24° |
| 2026-04-22 02:02 | 5.56147 | -73.84234 | 22395 ft | 405 kts | 29° |
| 2026-04-22 02:03 | 5.58621 | -73.82843 | 22842 ft | 408 kts | 29° |
| 2026-04-22 02:03 | 5.61107 | -73.81451 | 23293 ft | 411 kts | 29° |
| 2026-04-22 02:03 | 5.63618 | -73.80047 | 23740 ft | 415 kts | 29° |
| 2026-04-22 02:03 | 5.66148 | -73.78636 | 24153 ft | 417 kts | 29° |
| 2026-04-22 02:04 | 5.71257 | -73.75783 | 24845 ft | 422 kts | 29° |
| 2026-04-22 02:04 | 5.73843 | -73.74338 | 25208 ft | 425 kts | 29° |
| 2026-04-22 02:04 | 5.76428 | -73.72894 | 25562 ft | 427 kts | 29° |
| 2026-04-22 02:05 | 5.79032 | -73.71440 | 25911 ft | 429 kts | 29° |
| 2026-04-22 02:05 | 5.81654 | -73.69972 | 26258 ft | 432 kts | 29° |
| 2026-04-22 02:05 | 5.84280 | -73.68499 | 26600 ft | 434 kts | 29° |
| 2026-04-22 02:05 | 5.86894 | -73.67033 | 26886 ft | 436 kts | 29° |
| 2026-04-22 02:06 | 5.89557 | -73.65540 | 27207 ft | 439 kts | 29° |
| 2026-04-22 02:06 | 5.92229 | -73.64044 | 27552 ft | 441 kts | 28° |
| 2026-04-22 02:06 | 5.94914 | -73.62543 | 27872 ft | 443 kts | 28° |
| 2026-04-22 02:06 | 5.97611 | -73.61034 | 28177 ft | 445 kts | 28° |
| 2026-04-22 02:07 | 6.00322 | -73.59518 | 28442 ft | 447 kts | 28° |
| 2026-04-22 02:07 | 6.03046 | -73.57993 | 28750 ft | 449 kts | 28° |
| 2026-04-22 02:07 | 6.05791 | -73.56457 | 29069 ft | 452 kts | 28° |
| 2026-04-22 02:07 | 6.08534 | -73.54924 | 29206 ft | 450 kts | 28° |
| 2026-04-22 02:08 | 6.11225 | -73.53418 | 29228 ft | 436 kts | 28° |
| 2026-04-22 02:08 | 6.16463 | -73.50481 | 29210 ft | 429 kts | 28° |
| 2026-04-22 02:09 | 6.21675 | -73.47565 | 29207 ft | 428 kts | 29° |
| 2026-04-22 02:09 | 6.26877 | -73.44654 | 29202 ft | 428 kts | 29° |
| 2026-04-22 02:10 | 6.32043 | -73.41761 | 29168 ft | 428 kts | 29° |
| 2026-04-22 02:10 | 6.37239 | -73.38839 | 29175 ft | 428 kts | 29° |
| 2026-04-22 02:11 | 6.42441 | -73.35914 | 29173 ft | 428 kts | 29° |
| 2026-04-22 02:11 | 6.47636 | -73.32997 | 29178 ft | 428 kts | 29° |
| 2026-04-22 02:12 | 6.52832 | -73.30083 | 29171 ft | 427 kts | 29° |
| 2026-04-22 02:12 | 6.58032 | -73.27169 | 29140 ft | 428 kts | 28° |
| 2026-04-22 02:13 | 6.63228 | -73.24255 | 29144 ft | 428 kts | 29° |
| 2026-04-22 02:13 | 6.68426 | -73.21330 | 29165 ft | 428 kts | 29° |
| 2026-04-22 02:14 | 6.73619 | -73.18409 | 29148 ft | 428 kts | 29° |
| 2026-04-22 02:14 | 6.78818 | -73.15486 | 29150 ft | 427 kts | 29° |
| 2026-04-22 02:15 | 6.83975 | -73.12594 | 29032 ft | 424 kts | 28° |
| 2026-04-22 02:15 | 6.86530 | -73.11162 | 28773 ft | 416 kts | 28° |
| 2026-04-22 02:15 | 6.89037 | -73.09753 | 28520 ft | 409 kts | 29° |
| 2026-04-22 02:15 | 6.91507 | -73.08361 | 28322 ft | 403 kts | 29° |
| 2026-04-22 02:16 | 6.93952 | -73.06979 | 27921 ft | 402 kts | 29° |
| 2026-04-22 02:16 | 6.96388 | -73.05606 | 27511 ft | 401 kts | 29° |
| 2026-04-22 02:16 | 6.98829 | -73.04231 | 27094 ft | 400 kts | 29° |
| 2026-04-22 02:16 | 7.01251 | -73.02869 | 26676 ft | 400 kts | 29° |
| 2026-04-22 02:17 | 7.03679 | -73.01506 | 26256 ft | 399 kts | 28° |
| 2026-04-22 02:17 | 7.06114 | -73.00141 | 25822 ft | 399 kts | 29° |
| 2026-04-22 02:17 | 7.08542 | -72.98778 | 25379 ft | 399 kts | 29° |
| 2026-04-22 02:17 | 7.10970 | -72.97412 | 24935 ft | 399 kts | 29° |
| 2026-04-22 02:18 | 7.13366 | -72.96063 | 24468 ft | 400 kts | 29° |
| 2026-04-22 02:18 | 7.15791 | -72.94696 | 24168 ft | 397 kts | 29° |
| 2026-04-22 02:18 | 7.18205 | -72.93334 | 23695 ft | 398 kts | 29° |
| 2026-04-22 02:18 | 7.20597 | -72.91986 | 23380 ft | 392 kts | 29° |
| 2026-04-22 02:19 | 7.22970 | -72.90649 | 22930 ft | 389 kts | 29° |
| 2026-04-22 02:19 | 7.25320 | -72.89324 | 22638 ft | 383 kts | 29° |
| 2026-04-22 02:19 | 7.27609 | -72.88035 | 22501 ft | 371 kts | 29° |
| 2026-04-22 02:19 | 7.29835 | -72.86784 | 22295 ft | 363 kts | 29° |
| 2026-04-22 02:20 | 7.32027 | -72.85553 | 21956 ft | 358 kts | 29° |
| 2026-04-22 02:20 | 7.34192 | -72.84337 | 21579 ft | 356 kts | 29° |
| 2026-04-22 02:20 | 7.36352 | -72.83123 | 21198 ft | 354 kts | 29° |
| 2026-04-22 02:20 | 7.38493 | -72.81917 | 20822 ft | 351 kts | 29° |
| 2026-04-22 02:21 | 7.40622 | -72.80712 | 20443 ft | 349 kts | 29° |
| 2026-04-22 02:21 | 7.42024 | -72.79918 | 20200 ft | 348 kts | 29° |
| 2026-04-22 02:21 | 7.44132 | -72.78728 | 19838 ft | 346 kts | 29° |
| 2026-04-22 02:21 | 7.46225 | -72.77548 | 19479 ft | 344 kts | 29° |
| 2026-04-22 02:22 | 7.48310 | -72.76372 | 19128 ft | 343 kts | 29° |
| 2026-04-22 02:22 | 7.50438 | -72.75298 | 18773 ft | 341 kts | 20° |
| 2026-04-22 02:22 | 7.52708 | -72.74670 | 18430 ft | 339 kts | 11° |
| 2026-04-22 02:22 | 7.55012 | -72.74199 | 17998 ft | 337 kts | 11° |
| 2026-04-22 02:23 | 7.57309 | -72.73726 | 17617 ft | 335 kts | 11° |
| 2026-04-22 02:23 | 7.59586 | -72.73256 | 17248 ft | 333 kts | 11° |
| 2026-04-22 02:23 | 7.61854 | -72.72784 | 16879 ft | 331 kts | 11° |
| 2026-04-22 02:23 | 7.64107 | -72.72314 | 16524 ft | 329 kts | 11° |
| 2026-04-22 02:24 | 7.66312 | -72.71854 | 16178 ft | 327 kts | 11° |
| 2026-04-22 02:24 | 7.68534 | -72.71391 | 15829 ft | 325 kts | 11° |
| 2026-04-22 02:24 | 7.70744 | -72.70932 | 15476 ft | 323 kts | 11° |
| 2026-04-22 02:24 | 7.72911 | -72.70483 | 15355 ft | 313 kts | 11° |
| 2026-04-22 02:25 | 7.75014 | -72.70046 | 15215 ft | 304 kts | 12° |
| 2026-04-22 02:25 | 7.76983 | -72.69338 | 14866 ft | 304 kts | 31° |
| 2026-04-22 02:25 | 7.78642 | -72.67956 | 14281 ft | 313 kts | 45° |
| 2026-04-22 02:25 | 7.80172 | -72.66370 | 13877 ft | 315 kts | 46° |
| 2026-04-22 02:26 | 7.81683 | -72.64770 | 13473 ft | 314 kts | 47° |
| 2026-04-22 02:26 | 7.83106 | -72.63103 | 13110 ft | 313 kts | 50° |
| 2026-04-22 02:26 | 7.84492 | -72.61422 | 12760 ft | 311 kts | 50° |
| 2026-04-22 02:26 | 7.85868 | -72.59748 | 12417 ft | 309 kts | 50° |
| 2026-04-22 02:27 | 7.87230 | -72.58082 | 12092 ft | 307 kts | 50° |
| 2026-04-22 02:27 | 7.88584 | -72.56421 | 11764 ft | 305 kts | 50° |
| 2026-04-22 02:27 | 7.89913 | -72.54780 | 11301 ft | 301 kts | 50° |
| 2026-04-22 02:27 | 7.91233 | -72.53148 | 10702 ft | 298 kts | 50° |
| 2026-04-22 02:28 | 7.92533 | -72.51531 | 10177 ft | 294 kts | 48° |
| 2026-04-22 02:28 | 7.94043 | -72.50302 | 10054 ft | 269 kts | 24° |
| 2026-04-22 02:28 | 7.95762 | -72.49797 | 9933 ft | 249 kts | 5° |
| 2026-04-22 02:28 | 7.97465 | -72.49662 | 9801 ft | 242 kts | 2° |
| 2026-04-22 02:29 | 7.99131 | -72.49587 | 9553 ft | 238 kts | 2° |
| 2026-04-22 02:29 | 8.00760 | -72.49524 | 9268 ft | 236 kts | 2° |
| 2026-04-22 02:29 | 8.02387 | -72.49466 | 8858 ft | 232 kts | 2° |
| 2026-04-22 02:29 | 8.03987 | -72.49415 | 8363 ft | 231 kts | 2° |
| 2026-04-22 02:30 | 8.05593 | -72.49368 | 7877 ft | 230 kts | 2° |
| 2026-04-22 02:30 | 8.07184 | -72.49325 | 7419 ft | 228 kts | 2° |
| 2026-04-22 02:30 | 8.08752 | -72.49285 | 7131 ft | 218 kts | 2° |
| 2026-04-22 02:30 | 8.10225 | -72.49250 | 6902 ft | 208 kts | 2° |
| 2026-04-22 02:31 | 8.11665 | -72.49218 | 6534 ft | 206 kts | 2° |
| 2026-04-22 02:31 | 8.13087 | -72.49187 | 6146 ft | 203 kts | 2° |
| 2026-04-22 02:31 | 8.14499 | -72.49158 | 5733 ft | 202 kts | 2° |
| 2026-04-22 02:31 | 8.15888 | -72.48975 | 5402 ft | 202 kts | 24° |
| 2026-04-22 02:32 | 8.16987 | -72.48126 | 5108 ft | 201 kts | 53° |
| 2026-04-22 02:32 | 8.17497 | -72.46823 | 4813 ft | 203 kts | 85° |
| 2026-04-22 02:32 | 8.17247 | -72.45431 | 4503 ft | 205 kts | 117° |
| 2026-04-22 02:32 | 8.16289 | -72.44382 | 4389 ft | 207 kts | 150° |
| 2026-04-22 02:33 | 8.14915 | -72.43987 | 4394 ft | 209 kts | 182° |
| 2026-04-22 02:33 | 8.13522 | -72.44374 | 4399 ft | 211 kts | 206° |
| 2026-04-22 02:33 | 8.12195 | -72.45018 | 4393 ft | 212 kts | 204° |
| 2026-04-22 02:33 | 8.10816 | -72.45551 | 4348 ft | 213 kts | 199° |
| 2026-04-22 02:34 | 8.09425 | -72.46001 | 4148 ft | 212 kts | 197° |
| 2026-04-22 02:34 | 8.08022 | -72.46436 | 3914 ft | 209 kts | 197° |
| 2026-04-22 02:34 | 8.06640 | -72.46862 | 3640 ft | 206 kts | 197° |
| 2026-04-22 02:34 | 8.05280 | -72.47283 | 3371 ft | 203 kts | 197° |
| 2026-04-22 02:35 | 8.03953 | -72.47693 | 3128 ft | 196 kts | 197° |
| 2026-04-22 02:35 | 8.02689 | -72.48084 | 2891 ft | 183 kts | 196° |
| 2026-04-22 02:35 | 8.01527 | -72.48443 | 2683 ft | 165 kts | 196° |
| 2026-04-22 02:35 | 8.00480 | -72.48767 | 2475 ft | 151 kts | 195° |
| 2026-04-22 02:36 | 7.99490 | -72.49073 | 2273 ft | 147 kts | 195° |
| 2026-04-22 02:36 | 7.98521 | -72.49372 | 2076 ft | 145 kts | 195° |
| 2026-04-22 02:36 | 7.97561 | -72.49668 | 1879 ft | 143 kts | 196° |
| 2026-04-22 02:36 | 7.96612 | -72.49955 | 1707 ft | 142 kts | 195° |
| 2026-04-22 02:37 | 7.95662 | -72.50245 | 1525 ft | 143 kts | 199° |
| 2026-04-22 02:37 | 7.94715 | -72.50544 | 1323 ft | 142 kts | 197° |
| 2026-04-22 02:37 | 7.93778 | -72.50837 | 1138 ft | 140 kts | 196° |
| 2026-04-22 02:37 | 7.92870 | -72.51119 | 1035 ft | 126 kts | 197° |
| 2026-04-22 02:38 | 7.92270 | -72.51308 | 1051 ft | 47 kts | 198° |
| 2026-04-22 02:38 | 7.91991 | -72.51397 | 1056 ft | 27 kts | 198° |
| 2026-04-22 02:38 | 7.91878 | -72.51433 | 1057 ft | 16 kts | 197° |
| 2026-04-22 02:38 | 7.91805 | -72.51430 | 1057 ft | 7 kts | 172° |
| 2026-04-22 02:39 | 7.91806 | -72.51451 | 1058 ft | 6 kts | 339° |
| 2026-04-22 02:39 | 7.91866 | -72.51435 | 1057 ft | 13 kts | 14° |
| 2026-04-22 02:39 | 7.91986 | -72.51398 | 1056 ft | 23 kts | 18° |
| 2026-04-22 02:39 | 7.92162 | -72.51343 | 1053 ft | 28 kts | 17° |
| 2026-04-22 02:40 | 7.92357 | -72.51281 | 1047 ft | 31 kts | 18° |
| 2026-04-22 02:40 | 7.92575 | -72.51212 | 1034 ft | 27 kts | 18° |
| 2026-04-22 02:40 | 7.92700 | -72.51169 | 1032 ft | 15 kts | 28° |
| 2026-04-22 02:40 | 7.92760 | -72.51073 | 1031 ft | 16 kts | 63° |
| 2026-04-22 02:41 | 7.92786 | -72.50992 | 1032 ft | 13 kts | 68° |
| 2026-04-22 02:41 | 7.92818 | -72.50935 | 1032 ft | 10 kts | 59° |
| 2026-04-22 02:41 | 7.92862 | -72.50897 | 1032 ft | 8 kts | 30° |
| 2026-04-22 02:41 | 7.92872 | -72.50867 | 1032 ft | 5 kts | 103° |
| 2026-04-22 02:42 | 7.92855 | -72.50829 | 1032 ft | 7 kts | 117° |
| 2026-04-22 02:42 | 7.92834 | -72.50789 | 1032 ft | 6 kts | 119° |
| 2026-04-22 02:42 | 7.92806 | -72.50781 | 1032 ft | 4 kts | 199° |
| 2026-04-22 02:42 | 7.92785 | -72.50794 | 1032 ft | 3 kts | 208° |
| 2026-04-22 02:43 | 7.92775 | -72.50798 | 1032 ft | 0 kts | 206° |
| 2026-04-22 02:43 | 7.92774 | -72.50799 | 1032 ft | 1 kts | 206° |
| 2026-04-22 02:44 | 7.92770 | -72.50801 | 1032 ft | 0 kts | 206° |